createdAt,value
2017-07-27T00:00:15.213Z,938.63
2017-07-27T00:00:43.209Z,938.66
2017-07-27T00:01:11.332Z,938.66
2017-07-27T00:01:39.556Z,938.65
2017-07-27T00:02:07.660Z,938.63
2017-07-27T00:02:35.831Z,938.66
2017-07-27T00:03:04.075Z,938.67
2017-07-27T00:03:32.188Z,938.66
2017-07-27T00:04:00.407Z,938.63
2017-07-27T00:04:28.604Z,938.66
2017-07-27T00:04:56.704Z,938.68
2017-07-27T00:05:24.866Z,938.66
2017-07-27T00:05:53.085Z,938.65
2017-07-27T00:06:21.334Z,938.68
2017-07-27T00:06:49.479Z,938.69
2017-07-27T00:07:17.714Z,938.7
2017-07-27T00:07:45.796Z,938.65
2017-07-27T00:08:13.942Z,938.67
2017-07-27T00:08:42.030Z,938.66
2017-07-27T00:09:10.141Z,938.68
2017-07-27T00:09:38.290Z,938.68
2017-07-27T00:10:06.493Z,938.69
2017-07-27T00:10:34.712Z,938.7
2017-07-27T00:11:02.850Z,938.72
2017-07-27T00:11:30.871Z,938.72
2017-07-27T00:11:58.981Z,938.73
2017-07-27T00:12:27.088Z,938.71
2017-07-27T00:12:55.239Z,938.74
2017-07-27T00:13:23.456Z,938.74
2017-07-27T00:13:51.558Z,938.7
2017-07-27T00:14:19.523Z,938.72
2017-07-27T00:14:47.761Z,938.71
2017-07-27T00:15:15.975Z,938.73
2017-07-27T00:15:44.079Z,938.72
2017-07-27T00:16:12.270Z,938.73
2017-07-27T00:16:40.454Z,938.74
2017-07-27T00:17:08.680Z,938.73
2017-07-27T00:17:36.842Z,938.72
2017-07-27T00:18:04.920Z,938.73
2017-07-27T00:18:33.102Z,938.73
2017-07-27T00:19:01.221Z,938.7
2017-07-27T00:19:29.308Z,938.74
2017-07-27T00:19:57.400Z,938.77
2017-07-27T00:20:25.590Z,938.74
2017-07-27T00:20:53.746Z,938.77
2017-07-27T00:21:21.859Z,938.79
2017-07-27T00:21:49.955Z,938.77
2017-07-27T00:22:18.153Z,938.79
2017-07-27T00:22:46.247Z,938.78
2017-07-27T00:23:14.140Z,938.76
2017-07-27T00:23:42.262Z,938.77
2017-07-27T00:24:10.397Z,938.77
2017-07-27T00:24:38.399Z,938.79
2017-07-27T00:25:06.487Z,938.77
2017-07-27T00:25:34.684Z,938.77
2017-07-27T00:26:02.798Z,938.8
2017-07-27T00:26:31.047Z,938.78
2017-07-27T00:26:59.128Z,938.82
2017-07-27T00:27:27.244Z,938.77
2017-07-27T00:27:55.445Z,938.79
2017-07-27T00:28:23.770Z,938.8
2017-07-27T00:28:51.867Z,938.79
2017-07-27T00:29:19.981Z,938.8
2017-07-27T00:29:48.198Z,938.8
2017-07-27T00:30:16.527Z,938.77
2017-07-27T00:30:44.649Z,938.8
2017-07-27T00:31:12.723Z,938.79
2017-07-27T00:31:40.723Z,938.76
2017-07-27T00:32:08.796Z,938.81
2017-07-27T00:32:36.866Z,938.8
2017-07-27T00:33:05.092Z,938.81
2017-07-27T00:33:33.427Z,938.85
2017-07-27T00:34:01.537Z,938.83
2017-07-27T00:34:29.709Z,938.86
2017-07-27T00:34:57.811Z,938.85
2017-07-27T00:35:25.902Z,938.86
2017-07-27T00:35:54.087Z,938.85
2017-07-27T00:36:22.263Z,938.85
2017-07-27T00:36:50.442Z,938.85
2017-07-27T00:37:18.522Z,938.87
2017-07-27T00:37:46.705Z,938.88
2017-07-27T00:38:14.927Z,938.93
2017-07-27T00:38:43.051Z,938.89
2017-07-27T00:39:11.100Z,938.89
2017-07-27T00:39:39.197Z,938.89
2017-07-27T00:40:07.177Z,938.9
2017-07-27T00:40:35.377Z,938.88
2017-07-27T00:41:03.568Z,938.88
2017-07-27T00:41:31.768Z,938.89
2017-07-27T00:41:59.986Z,938.93
2017-07-27T00:42:28.261Z,938.9
2017-07-27T00:42:56.388Z,938.9
2017-07-27T00:43:24.741Z,938.9
2017-07-27T00:43:52.882Z,938.9
2017-07-27T00:44:20.935Z,938.93
2017-07-27T00:44:49.072Z,938.89
2017-07-27T00:45:17.318Z,938.91
2017-07-27T00:45:45.512Z,938.94
2017-07-27T00:46:13.533Z,938.93
2017-07-27T00:46:41.781Z,938.91
2017-07-27T00:47:10.056Z,938.92
2017-07-27T00:47:38.170Z,938.9
2017-07-27T00:48:06.341Z,938.94
2017-07-27T00:48:34.678Z,938.89
2017-07-27T00:49:02.785Z,938.9
2017-07-27T00:49:30.965Z,938.88
2017-07-27T00:49:58.972Z,938.89
2017-07-27T00:50:27.196Z,938.92
2017-07-27T00:50:55.294Z,938.93
2017-07-27T00:51:23.496Z,938.88
2017-07-27T00:51:51.527Z,938.89
2017-07-27T00:52:19.615Z,938.91
2017-07-27T00:52:47.735Z,938.9
2017-07-27T00:53:15.888Z,938.94
2017-07-27T00:53:44.053Z,938.91
2017-07-27T00:54:12.246Z,938.95
2017-07-27T00:54:40.225Z,938.93
2017-07-27T00:55:08.424Z,938.94
2017-07-27T00:55:36.622Z,938.94
2017-07-27T00:56:04.819Z,938.93
2017-07-27T00:56:33.060Z,938.95
2017-07-27T00:57:01.268Z,938.96
2017-07-27T00:57:29.464Z,938.94
2017-07-27T00:57:57.641Z,938.94
2017-07-27T00:58:25.882Z,939
2017-07-27T00:58:54.187Z,938.98
2017-07-27T00:59:22.276Z,939
2017-07-27T00:59:50.337Z,939
2017-07-27T01:00:18.571Z,939.02
2017-07-27T01:00:46.665Z,939
2017-07-27T01:01:14.851Z,939
2017-07-27T01:01:42.931Z,939.03
2017-07-27T01:02:10.988Z,939.01
2017-07-27T01:02:39.211Z,939
2017-07-27T01:03:07.220Z,939.01
2017-07-27T01:03:35.467Z,939
2017-07-27T01:04:03.421Z,938.97
2017-07-27T01:04:31.598Z,939.02
2017-07-27T01:04:59.726Z,938.99
2017-07-27T01:05:27.927Z,939
2017-07-27T01:05:56.044Z,938.99
2017-07-27T01:06:24.173Z,939.03
2017-07-27T01:06:52.282Z,939.02
2017-07-27T01:07:20.409Z,938.99
2017-07-27T01:07:48.535Z,939.04
2017-07-27T01:08:16.614Z,939.03
2017-07-27T01:08:44.685Z,939.01
2017-07-27T01:09:12.882Z,939.02
2017-07-27T01:09:41.074Z,939.04
2017-07-27T01:10:09.302Z,939.06
2017-07-27T01:10:37.511Z,939.02
2017-07-27T01:11:05.692Z,939.01
2017-07-27T01:11:33.739Z,939.05
2017-07-27T01:12:01.956Z,939.04
2017-07-27T01:12:30.056Z,939.03
2017-07-27T01:12:58.188Z,939.06
2017-07-27T01:13:26.346Z,939.04
2017-07-27T01:13:54.751Z,939.01
2017-07-27T01:14:22.913Z,939
2017-07-27T01:14:51.138Z,939.05
2017-07-27T01:15:19.259Z,939.02
2017-07-27T01:15:47.252Z,938.99
2017-07-27T01:16:15.325Z,939.02
2017-07-27T01:16:43.493Z,939.04
2017-07-27T01:17:11.706Z,939.04
2017-07-27T01:17:39.626Z,939.04
2017-07-27T01:18:07.818Z,939
2017-07-27T01:18:35.807Z,939.01
2017-07-27T01:19:04.134Z,939.08
2017-07-27T01:19:32.255Z,939.04
2017-07-27T01:20:00.493Z,938.99
2017-07-27T01:20:28.623Z,939.06
2017-07-27T01:20:56.848Z,938.99
2017-07-27T01:21:24.925Z,938.99
2017-07-27T01:21:53.164Z,939
2017-07-27T01:22:21.365Z,939.01
2017-07-27T01:22:49.495Z,939.01
2017-07-27T01:23:17.671Z,939.02
2017-07-27T01:23:45.781Z,938.99
2017-07-27T01:24:14.081Z,939
2017-07-27T01:24:42.107Z,939.03
2017-07-27T01:25:10.248Z,939.02
2017-07-27T01:25:38.337Z,939.04
2017-07-27T01:26:06.578Z,939.03
2017-07-27T01:26:34.675Z,939.02
2017-07-27T01:27:02.941Z,939
2017-07-27T01:27:31.098Z,939.01
2017-07-27T01:27:59.253Z,939.02
2017-07-27T01:28:27.327Z,939.01
2017-07-27T01:28:55.644Z,939.03
2017-07-27T01:29:23.854Z,939.01
2017-07-27T01:29:51.980Z,939
2017-07-27T01:30:20.032Z,939.03
2017-07-27T01:30:48.202Z,939.02
2017-07-27T01:31:16.315Z,939.04
2017-07-27T01:31:44.512Z,939.02
2017-07-27T01:32:12.669Z,939.04
2017-07-27T01:32:40.896Z,939.04
2017-07-27T01:33:09.122Z,939.04
2017-07-27T01:33:37.313Z,939
2017-07-27T01:34:05.621Z,939.03
2017-07-27T01:34:33.736Z,939.08
2017-07-27T01:35:01.947Z,939
2017-07-27T01:35:30.173Z,939.05
2017-07-27T01:35:58.211Z,939.07
2017-07-27T01:36:26.252Z,939.05
2017-07-27T01:36:54.273Z,939.05
2017-07-27T01:37:22.460Z,939.06
2017-07-27T01:37:50.672Z,939.04
2017-07-27T01:38:18.746Z,939.02
2017-07-27T01:38:46.922Z,939.03
2017-07-27T01:39:15.177Z,939.02
2017-07-27T01:39:43.396Z,939.02
2017-07-27T01:40:11.539Z,939.02
2017-07-27T01:40:39.748Z,939.03
2017-07-27T01:41:07.880Z,939.02
2017-07-27T01:41:36.006Z,939.03
2017-07-27T01:42:04.185Z,939.01
2017-07-27T01:42:32.204Z,939
2017-07-27T01:43:00.410Z,939.01
2017-07-27T01:43:28.533Z,939.04
2017-07-27T01:43:56.650Z,939.01
2017-07-27T01:44:24.949Z,939.02
2017-07-27T01:44:53.080Z,939.01
2017-07-27T01:45:21.110Z,938.99
2017-07-27T01:45:49.189Z,939.01
2017-07-27T01:46:17.323Z,939.01
2017-07-27T01:46:45.434Z,939
2017-07-27T01:47:13.554Z,939
2017-07-27T01:47:41.759Z,939.02
2017-07-27T01:48:09.976Z,939.04
2017-07-27T01:48:38.178Z,939.03
2017-07-27T01:49:06.421Z,939.04
2017-07-27T01:49:34.739Z,939.01
2017-07-27T01:50:02.978Z,939.02
2017-07-27T01:50:31.194Z,939.04
2017-07-27T01:50:59.392Z,939.02
2017-07-27T01:51:27.531Z,939.03
2017-07-27T01:51:55.703Z,939.01
2017-07-27T01:52:23.873Z,939.02
2017-07-27T01:52:52.024Z,939.03
2017-07-27T01:53:20.136Z,939.01
2017-07-27T01:53:48.159Z,939
2017-07-27T01:54:16.489Z,939
2017-07-27T01:54:44.688Z,938.98
2017-07-27T01:55:12.752Z,939
2017-07-27T01:55:40.953Z,938.97
2017-07-27T01:56:08.902Z,938.97
2017-07-27T01:56:36.980Z,938.97
2017-07-27T01:57:05.191Z,938.98
2017-07-27T01:57:33.200Z,938.94
2017-07-27T01:58:01.385Z,938.96
2017-07-27T01:58:29.511Z,938.94
2017-07-27T01:58:57.705Z,938.97
2017-07-27T01:59:25.940Z,938.96
2017-07-27T01:59:54.066Z,938.95
2017-07-27T02:00:22.097Z,938.97
2017-07-27T02:00:50.218Z,938.95
2017-07-27T02:01:18.282Z,938.96
2017-07-27T02:01:46.494Z,938.92
2017-07-27T02:02:14.702Z,938.93
2017-07-27T02:02:42.882Z,938.96
2017-07-27T02:03:11.121Z,938.93
2017-07-27T02:03:39.314Z,938.95
2017-07-27T02:04:07.506Z,938.93
2017-07-27T02:04:35.830Z,938.96
2017-07-27T02:05:04.043Z,938.95
2017-07-27T02:05:32.158Z,938.95
2017-07-27T02:06:00.345Z,938.93
2017-07-27T02:06:28.463Z,938.96
2017-07-27T02:06:56.688Z,938.93
2017-07-27T02:07:24.791Z,938.91
2017-07-27T02:07:53.017Z,938.92
2017-07-27T02:08:21.252Z,938.94
2017-07-27T02:08:49.352Z,938.94
2017-07-27T02:09:17.568Z,938.94
2017-07-27T02:09:45.862Z,938.93
2017-07-27T02:10:13.875Z,938.92
2017-07-27T02:10:41.844Z,938.94
2017-07-27T02:11:10.070Z,938.95
2017-07-27T02:11:38.321Z,938.95
2017-07-27T02:12:06.489Z,938.94
2017-07-27T02:12:34.517Z,938.92
2017-07-27T02:13:02.638Z,938.93
2017-07-27T02:13:30.783Z,938.91
2017-07-27T02:13:58.989Z,938.91
2017-07-27T02:14:27.182Z,938.91
2017-07-27T02:14:55.297Z,938.91
2017-07-27T02:15:23.278Z,938.91
2017-07-27T02:15:51.157Z,938.9
2017-07-27T02:16:19.416Z,938.93
2017-07-27T02:16:47.638Z,938.95
2017-07-27T02:17:15.860Z,938.92
2017-07-27T02:17:44.134Z,938.92
2017-07-27T02:18:12.342Z,938.9
2017-07-27T02:18:40.498Z,938.94
2017-07-27T02:19:08.720Z,938.93
2017-07-27T02:19:37.016Z,938.94
2017-07-27T02:20:05.240Z,938.92
2017-07-27T02:20:33.244Z,938.95
2017-07-27T02:21:01.429Z,938.93
2017-07-27T02:21:29.521Z,938.92
2017-07-27T02:21:57.792Z,938.92
2017-07-27T02:22:25.958Z,938.94
2017-07-27T02:22:54.190Z,938.91
2017-07-27T02:23:22.438Z,938.93
2017-07-27T02:23:50.542Z,938.93
2017-07-27T02:24:18.740Z,938.93
2017-07-27T02:24:46.861Z,938.94
2017-07-27T02:25:15.053Z,938.91
2017-07-27T02:25:43.241Z,938.92
2017-07-27T02:26:11.197Z,938.92
2017-07-27T02:26:39.448Z,938.93
2017-07-27T02:27:07.385Z,938.94
2017-07-27T02:27:35.363Z,938.91
2017-07-27T02:28:03.438Z,938.91
2017-07-27T02:28:31.455Z,938.94
2017-07-27T02:28:59.571Z,938.92
2017-07-27T02:29:27.729Z,938.93
2017-07-27T02:29:56.025Z,938.93
2017-07-27T02:30:24.042Z,938.91
2017-07-27T02:30:52.240Z,938.96
2017-07-27T02:31:20.535Z,938.93
2017-07-27T02:31:48.711Z,938.93
2017-07-27T02:32:16.919Z,938.95
2017-07-27T02:32:45.069Z,938.9
2017-07-27T02:33:13.163Z,938.94
2017-07-27T02:33:41.294Z,938.95
2017-07-27T02:34:09.524Z,938.92
2017-07-27T02:34:37.763Z,938.92
2017-07-27T02:35:05.927Z,938.93
2017-07-27T02:35:33.997Z,938.92
2017-07-27T02:36:02.086Z,938.94
2017-07-27T02:36:30.317Z,938.94
2017-07-27T02:36:58.445Z,938.92
2017-07-27T02:37:26.634Z,938.94
2017-07-27T02:37:54.735Z,938.9
2017-07-27T02:38:22.948Z,938.92
2017-07-27T02:38:51.175Z,938.91
2017-07-27T02:39:19.220Z,938.91
2017-07-27T02:39:47.514Z,938.95
2017-07-27T02:40:15.612Z,938.89
2017-07-27T02:40:43.851Z,938.9
2017-07-27T02:41:12.069Z,938.89
2017-07-27T02:41:40.112Z,938.86
2017-07-27T02:42:08.203Z,938.88
2017-07-27T02:42:36.277Z,938.86
2017-07-27T02:43:04.357Z,938.84
2017-07-27T02:43:32.597Z,938.86
2017-07-27T02:44:00.795Z,938.83
2017-07-27T02:44:29.012Z,938.84
2017-07-27T02:44:57.210Z,938.8
2017-07-27T02:45:25.290Z,938.83
2017-07-27T02:45:53.462Z,938.81
2017-07-27T02:46:21.479Z,938.81
2017-07-27T02:46:49.677Z,938.82
2017-07-27T02:47:17.922Z,938.78
2017-07-27T02:47:45.984Z,938.81
2017-07-27T02:48:14.166Z,938.81
2017-07-27T02:48:42.317Z,938.76
2017-07-27T02:49:10.550Z,938.79
2017-07-27T02:49:38.757Z,938.78
2017-07-27T02:50:06.972Z,938.76
2017-07-27T02:50:35.089Z,938.79
2017-07-27T02:51:03.104Z,938.75
2017-07-27T02:51:31.198Z,938.76
2017-07-27T02:51:59.271Z,938.77
2017-07-27T02:52:27.458Z,938.72
2017-07-27T02:52:55.640Z,938.75
2017-07-27T02:53:23.745Z,938.74
2017-07-27T02:53:51.866Z,938.77
2017-07-27T02:54:19.972Z,938.74
2017-07-27T02:54:48.002Z,938.71
2017-07-27T02:55:16.223Z,938.73
2017-07-27T02:55:44.422Z,938.72
2017-07-27T02:56:12.533Z,938.75
2017-07-27T02:56:40.728Z,938.72
2017-07-27T02:57:08.809Z,938.75
2017-07-27T02:57:37.004Z,938.77
2017-07-27T02:58:05.169Z,938.75
2017-07-27T02:58:33.347Z,938.74
2017-07-27T02:59:01.593Z,938.75
2017-07-27T02:59:29.687Z,938.69
2017-07-27T02:59:57.906Z,938.71
2017-07-27T03:00:26.198Z,938.72
2017-07-27T03:00:54.440Z,938.72
2017-07-27T03:01:22.644Z,938.69
2017-07-27T03:01:50.737Z,938.68
2017-07-27T03:02:18.936Z,938.7
2017-07-27T03:02:47.052Z,938.68
2017-07-27T03:03:15.278Z,938.66
2017-07-27T03:03:43.479Z,938.67
2017-07-27T03:04:11.675Z,938.68
2017-07-27T03:04:39.872Z,938.65
2017-07-27T03:05:08.168Z,938.65
2017-07-27T03:05:36.367Z,938.66
2017-07-27T03:06:04.617Z,938.64
2017-07-27T03:06:32.786Z,938.67
2017-07-27T03:07:00.990Z,938.64
2017-07-27T03:07:29.147Z,938.67
2017-07-27T03:07:57.250Z,938.65
2017-07-27T03:08:25.397Z,938.65
2017-07-27T03:08:53.543Z,938.68
2017-07-27T03:09:21.668Z,938.66
2017-07-27T03:09:49.834Z,938.63
2017-07-27T03:10:18.049Z,938.62
2017-07-27T03:10:46.205Z,938.62
2017-07-27T03:11:14.406Z,938.63
2017-07-27T03:11:42.471Z,938.61
2017-07-27T03:12:10.595Z,938.58
2017-07-27T03:12:38.741Z,938.59
2017-07-27T03:13:06.979Z,938.58
2017-07-27T03:13:35.191Z,938.58
2017-07-27T03:14:03.185Z,938.59
2017-07-27T03:14:31.374Z,938.59
2017-07-27T03:14:59.497Z,938.58
2017-07-27T03:15:27.796Z,938.57
2017-07-27T03:15:55.982Z,938.55
2017-07-27T03:16:24.155Z,938.57
2017-07-27T03:16:52.292Z,938.6
2017-07-27T03:17:20.428Z,938.6
2017-07-27T03:17:48.517Z,938.6
2017-07-27T03:18:16.738Z,938.58
2017-07-27T03:18:44.984Z,938.59
2017-07-27T03:19:13.031Z,938.61
2017-07-27T03:19:41.134Z,938.63
2017-07-27T03:20:09.186Z,938.63
2017-07-27T03:20:37.493Z,938.59
2017-07-27T03:21:05.702Z,938.64
2017-07-27T03:21:33.780Z,938.62
2017-07-27T03:22:01.934Z,938.63
2017-07-27T03:22:30.134Z,938.66
2017-07-27T03:22:58.219Z,938.65
2017-07-27T03:23:26.431Z,938.6
2017-07-27T03:23:54.544Z,938.63
2017-07-27T03:24:22.773Z,938.65
2017-07-27T03:24:50.863Z,938.65
2017-07-27T03:25:18.933Z,938.69
2017-07-27T03:25:47.128Z,938.69
2017-07-27T03:26:15.220Z,938.69
2017-07-27T03:26:43.420Z,938.71
2017-07-27T03:27:11.644Z,938.74
2017-07-27T03:27:39.845Z,938.72
2017-07-27T03:28:07.914Z,938.71
2017-07-27T03:28:36.018Z,938.7
2017-07-27T03:29:04.222Z,938.72
2017-07-27T03:29:32.347Z,938.72
2017-07-27T03:30:00.418Z,938.73
2017-07-27T03:30:28.637Z,938.72
2017-07-27T03:30:56.736Z,938.72
2017-07-27T03:31:24.788Z,938.71
2017-07-27T03:31:52.919Z,938.73
2017-07-27T03:32:21.143Z,938.71
2017-07-27T03:32:49.130Z,938.72
2017-07-27T03:33:17.295Z,938.7
2017-07-27T03:33:45.390Z,938.68
2017-07-27T03:34:13.586Z,938.69
2017-07-27T03:34:41.605Z,938.67
2017-07-27T03:35:09.842Z,938.72
2017-07-27T03:35:38.036Z,938.69
2017-07-27T03:36:06.216Z,938.65
2017-07-27T03:36:34.258Z,938.65
2017-07-27T03:37:02.495Z,938.68
2017-07-27T03:37:30.683Z,938.63
2017-07-27T03:37:58.777Z,938.61
2017-07-27T03:38:26.951Z,938.6
2017-07-27T03:38:55.215Z,938.64
2017-07-27T03:39:23.401Z,938.63
2017-07-27T03:39:51.607Z,938.63
2017-07-27T03:40:19.656Z,938.61
2017-07-27T03:40:47.929Z,938.6
2017-07-27T03:41:16.038Z,938.6
2017-07-27T03:41:44.202Z,938.59
2017-07-27T03:42:12.360Z,938.59
2017-07-27T03:42:40.569Z,938.58
2017-07-27T03:43:08.719Z,938.6
2017-07-27T03:43:36.841Z,938.6
2017-07-27T03:44:04.771Z,938.58
2017-07-27T03:44:32.995Z,938.57
2017-07-27T03:45:01.012Z,938.57
2017-07-27T03:45:29.106Z,938.56
2017-07-27T03:45:57.315Z,938.58
2017-07-27T03:46:25.496Z,938.53
2017-07-27T03:46:53.674Z,938.57
2017-07-27T03:47:21.728Z,938.57
2017-07-27T03:47:49.833Z,938.54
2017-07-27T03:48:18.087Z,938.51
2017-07-27T03:48:46.215Z,938.54
2017-07-27T03:49:14.206Z,938.57
2017-07-27T03:49:42.297Z,938.53
2017-07-27T03:50:10.389Z,938.53
2017-07-27T03:50:38.503Z,938.51
2017-07-27T03:51:06.671Z,938.51
2017-07-27T03:51:34.857Z,938.5
2017-07-27T03:52:02.948Z,938.52
2017-07-27T03:52:31.025Z,938.5
2017-07-27T03:52:59.241Z,938.51
2017-07-27T03:53:27.333Z,938.51
2017-07-27T03:53:55.336Z,938.48
2017-07-27T03:54:23.511Z,938.49
2017-07-27T03:54:51.723Z,938.46
2017-07-27T03:55:19.937Z,938.46
2017-07-27T03:55:48.217Z,938.46
2017-07-27T03:56:16.441Z,938.47
2017-07-27T03:56:44.743Z,938.46
2017-07-27T03:57:12.880Z,938.44
2017-07-27T03:57:41.097Z,938.46
2017-07-27T03:58:09.313Z,938.44
2017-07-27T03:58:37.496Z,938.42
2017-07-27T03:59:05.698Z,938.4
2017-07-27T03:59:33.691Z,938.38
2017-07-27T04:00:01.682Z,938.43
2017-07-27T04:00:29.682Z,938.39
2017-07-27T04:00:57.995Z,938.39
2017-07-27T04:01:26.199Z,938.39
2017-07-27T04:01:54.417Z,938.41
2017-07-27T04:02:22.493Z,938.4
2017-07-27T04:02:50.638Z,938.37
2017-07-27T04:03:18.864Z,938.39
2017-07-27T04:03:47.069Z,938.37
2017-07-27T04:04:15.179Z,938.32
2017-07-27T04:04:43.310Z,938.35
2017-07-27T04:05:11.365Z,938.33
2017-07-27T04:05:39.468Z,938.35
2017-07-27T04:06:07.681Z,938.28
2017-07-27T04:06:35.684Z,938.32
2017-07-27T04:07:03.874Z,938.34
2017-07-27T04:07:32.085Z,938.31
2017-07-27T04:08:00.175Z,938.31
2017-07-27T04:08:28.187Z,938.32
2017-07-27T04:08:56.392Z,938.28
2017-07-27T04:09:24.623Z,938.32
2017-07-27T04:09:52.742Z,938.3
2017-07-27T04:10:20.655Z,938.3
2017-07-27T04:10:48.846Z,938.33
2017-07-27T04:11:17.060Z,938.32
2017-07-27T04:11:45.234Z,938.32
2017-07-27T04:12:13.490Z,938.33
2017-07-27T04:12:41.680Z,938.32
2017-07-27T04:13:09.920Z,938.32
2017-07-27T04:13:38.118Z,938.28
2017-07-27T04:14:06.331Z,938.32
2017-07-27T04:14:34.304Z,938.32
2017-07-27T04:15:02.341Z,938.27
2017-07-27T04:15:30.310Z,938.31
2017-07-27T04:15:58.567Z,938.27
2017-07-27T04:16:26.567Z,938.26
2017-07-27T04:16:54.609Z,938.27
2017-07-27T04:17:22.828Z,938.28
2017-07-27T04:17:50.925Z,938.27
2017-07-27T04:18:19.111Z,938.28
2017-07-27T04:18:47.213Z,938.26
2017-07-27T04:19:15.367Z,938.25
2017-07-27T04:19:43.586Z,938.26
2017-07-27T04:20:11.752Z,938.27
2017-07-27T04:20:39.843Z,938.27
2017-07-27T04:21:08.072Z,938.27
2017-07-27T04:21:36.201Z,938.28
2017-07-27T04:22:04.299Z,938.28
2017-07-27T04:22:32.486Z,938.28
2017-07-27T04:23:00.647Z,938.3
2017-07-27T04:23:28.915Z,938.3
2017-07-27T04:23:56.992Z,938.32
2017-07-27T04:24:25.064Z,938.33
2017-07-27T04:24:53.322Z,938.29
2017-07-27T04:25:21.550Z,938.28
2017-07-27T04:25:49.783Z,938.28
2017-07-27T04:26:18.017Z,938.3
2017-07-27T04:26:46.210Z,938.3
2017-07-27T04:27:14.386Z,938.27
2017-07-27T04:27:42.589Z,938.27
2017-07-27T04:28:10.805Z,938.28
2017-07-27T04:28:39.010Z,938.29
2017-07-27T04:29:07.150Z,938.3
2017-07-27T04:29:35.248Z,938.32
2017-07-27T04:30:03.354Z,938.29
2017-07-27T04:30:31.590Z,938.31
2017-07-27T04:30:59.764Z,938.32
2017-07-27T04:31:28.069Z,938.33
2017-07-27T04:31:56.204Z,938.33
2017-07-27T04:32:24.421Z,938.31
2017-07-27T04:32:52.608Z,938.32
2017-07-27T04:33:20.739Z,938.33
2017-07-27T04:33:48.846Z,938.33
2017-07-27T04:34:16.976Z,938.35
2017-07-27T04:34:45.002Z,938.36
2017-07-27T04:35:13.141Z,938.36
2017-07-27T04:35:41.232Z,938.34
2017-07-27T04:36:09.418Z,938.34
2017-07-27T04:36:37.639Z,938.34
2017-07-27T04:37:05.785Z,938.34
2017-07-27T04:37:33.918Z,938.31
2017-07-27T04:38:02.133Z,938.31
2017-07-27T04:38:30.342Z,938.31
2017-07-27T04:38:58.307Z,938.31
2017-07-27T04:39:26.362Z,938.33
2017-07-27T04:39:54.394Z,938.3
2017-07-27T04:40:22.630Z,938.29
2017-07-27T04:40:50.725Z,938.29
2017-07-27T04:41:19.034Z,938.27
2017-07-27T04:41:46.954Z,938.29
2017-07-27T04:42:15.135Z,938.28
2017-07-27T04:42:43.313Z,938.25
2017-07-27T04:43:11.469Z,938.27
2017-07-27T04:43:39.683Z,938.24
2017-07-27T04:44:07.588Z,938.24
2017-07-27T04:44:35.737Z,938.26
2017-07-27T04:45:03.930Z,938.25
2017-07-27T04:45:32.191Z,938.23
2017-07-27T04:46:00.387Z,938.24
2017-07-27T04:46:28.573Z,938.22
2017-07-27T04:46:56.799Z,938.22
2017-07-27T04:47:24.657Z,938.21
2017-07-27T04:47:52.736Z,938.2
2017-07-27T04:48:20.973Z,938.22
2017-07-27T04:48:49.173Z,938.24
2017-07-27T04:49:17.332Z,938.17
2017-07-27T04:49:45.566Z,938.2
2017-07-27T04:50:13.757Z,938.19
2017-07-27T04:50:41.989Z,938.17
2017-07-27T04:51:10.101Z,938.17
2017-07-27T04:51:38.317Z,938.14
2017-07-27T04:52:06.329Z,938.16
2017-07-27T04:52:34.331Z,938.17
2017-07-27T04:53:02.249Z,938.18
2017-07-27T04:53:30.424Z,938.18
2017-07-27T04:53:58.613Z,938.14
2017-07-27T04:54:26.832Z,938.13
2017-07-27T04:54:55.006Z,938.16
2017-07-27T04:55:23.007Z,938.17
2017-07-27T04:55:51.136Z,938.13
2017-07-27T04:56:19.248Z,938.17
2017-07-27T04:56:47.431Z,938.14
2017-07-27T04:57:15.628Z,938.15
2017-07-27T04:57:43.719Z,938.14
2017-07-27T04:58:11.823Z,938.14
2017-07-27T04:58:39.949Z,938.14
2017-07-27T04:59:08.190Z,938.14
2017-07-27T04:59:36.428Z,938.11
2017-07-27T05:00:04.538Z,938.14
2017-07-27T05:00:32.733Z,938.12
2017-07-27T05:01:00.983Z,938.1
2017-07-27T05:01:29.184Z,938.14
2017-07-27T05:01:57.367Z,938.12
2017-07-27T05:02:25.538Z,938.1
2017-07-27T05:02:53.752Z,938.07
2017-07-27T05:03:21.938Z,938.06
2017-07-27T05:03:50.174Z,938.09
2017-07-27T05:04:18.379Z,938.08
2017-07-27T05:04:46.552Z,938.07
2017-07-27T05:05:14.777Z,938.07
2017-07-27T05:05:42.985Z,938.05
2017-07-27T05:06:11.122Z,938.02
2017-07-27T05:06:39.427Z,938.04
2017-07-27T05:07:07.653Z,938.04
2017-07-27T05:07:35.871Z,938.02
2017-07-27T05:08:03.876Z,938.02
2017-07-27T05:08:32.098Z,938.01
2017-07-27T05:09:00.200Z,937.99
2017-07-27T05:09:28.409Z,937.96
2017-07-27T05:09:56.511Z,937.96
2017-07-27T05:10:24.646Z,937.96
2017-07-27T05:10:52.839Z,937.96
2017-07-27T05:11:21.045Z,937.97
2017-07-27T05:11:49.146Z,938
2017-07-27T05:12:17.298Z,937.95
2017-07-27T05:12:45.329Z,937.97
2017-07-27T05:13:13.356Z,937.96
2017-07-27T05:13:41.575Z,937.97
2017-07-27T05:14:09.817Z,937.94
2017-07-27T05:14:37.917Z,937.93
2017-07-27T05:15:05.919Z,937.93
2017-07-27T05:15:34.119Z,937.92
2017-07-27T05:16:02.232Z,937.88
2017-07-27T05:16:30.517Z,937.88
2017-07-27T05:16:58.724Z,937.91
2017-07-27T05:17:26.844Z,937.87
2017-07-27T05:17:54.746Z,937.87
2017-07-27T05:18:22.675Z,937.88
2017-07-27T05:18:50.894Z,937.86
2017-07-27T05:19:19.133Z,937.86
2017-07-27T05:19:47.339Z,937.86
2017-07-27T05:20:15.476Z,937.86
2017-07-27T05:20:43.515Z,937.85
2017-07-27T05:21:11.472Z,937.85
2017-07-27T05:21:39.728Z,937.84
2017-07-27T05:22:07.858Z,937.84
2017-07-27T05:22:35.949Z,937.85
2017-07-27T05:23:04.025Z,937.83
2017-07-27T05:23:32.075Z,937.9
2017-07-27T05:24:00.184Z,937.87
2017-07-27T05:24:28.280Z,937.88
2017-07-27T05:24:56.412Z,937.84
2017-07-27T05:25:24.534Z,937.84
2017-07-27T05:25:52.623Z,937.85
2017-07-27T05:26:20.837Z,937.86
2017-07-27T05:26:49.217Z,937.84
2017-07-27T05:27:17.420Z,937.85
2017-07-27T05:27:45.484Z,937.86
2017-07-27T05:28:13.635Z,937.88
2017-07-27T05:28:41.826Z,937.86
2017-07-27T05:29:10.076Z,937.86
2017-07-27T05:29:38.225Z,937.91
2017-07-27T05:30:06.400Z,937.87
2017-07-27T05:30:34.445Z,937.88
2017-07-27T05:31:02.642Z,937.89
2017-07-27T05:31:30.824Z,937.89
2017-07-27T05:31:59.130Z,937.9
2017-07-27T05:32:27.362Z,937.87
2017-07-27T05:32:55.406Z,937.89
2017-07-27T05:33:23.646Z,937.88
2017-07-27T05:33:51.818Z,937.91
2017-07-27T05:34:19.921Z,937.86
2017-07-27T05:34:48.133Z,937.89
2017-07-27T05:35:16.319Z,937.89
2017-07-27T05:35:44.441Z,937.85
2017-07-27T05:36:12.557Z,937.86
2017-07-27T05:36:40.778Z,937.85
2017-07-27T05:37:08.778Z,937.85
2017-07-27T05:37:37.002Z,937.84
2017-07-27T05:38:05.160Z,937.82
2017-07-27T05:38:33.250Z,937.83
2017-07-27T05:39:01.370Z,937.87
2017-07-27T05:39:29.447Z,937.84
2017-07-27T05:39:57.647Z,937.85
2017-07-27T05:40:25.890Z,937.85
2017-07-27T05:40:54.019Z,937.83
2017-07-27T05:41:22.103Z,937.8
2017-07-27T05:41:50.232Z,937.81
2017-07-27T05:42:18.416Z,937.82
2017-07-27T05:42:46.595Z,937.8
2017-07-27T05:43:14.631Z,937.82
2017-07-27T05:43:42.841Z,937.83
2017-07-27T05:44:10.941Z,937.83
2017-07-27T05:44:38.961Z,937.81
2017-07-27T05:45:06.958Z,937.78
2017-07-27T05:45:35.109Z,937.81
2017-07-27T05:46:03.188Z,937.77
2017-07-27T05:46:31.328Z,937.76
2017-07-27T05:46:59.644Z,937.74
2017-07-27T05:47:27.737Z,937.76
2017-07-27T05:47:55.800Z,937.77
2017-07-27T05:48:23.932Z,937.76
2017-07-27T05:48:52.126Z,937.76
2017-07-27T05:49:20.106Z,937.78
2017-07-27T05:49:48.201Z,937.79
2017-07-27T05:50:16.398Z,937.8
2017-07-27T05:50:44.562Z,937.75
2017-07-27T05:51:12.722Z,937.75
2017-07-27T05:51:40.926Z,937.78
2017-07-27T05:52:09.178Z,937.77
2017-07-27T05:52:37.189Z,937.78
2017-07-27T05:53:05.287Z,937.73